^^

..:: Storico WU ::..




Lo storico viene creato da WUnderground con i dati che la stazione Meteomincio invia al loro server. L' aggiornamento viene fatto ogni 5 minuti circa, tuttavia possono esserci intervalli pił ampi a causa di errori, interruzioni di servizio o problemi nell' invio tramite FTP.


Storico stazione MeteoMincio
Giorno Sommario per Giugno 14, 2022 Unità:  Inglese    Metrico   Entrambi
Giorno Settimana Mese Anno
  Max: Min: Media:
Temperatura: 87.8 °F 69.8 °F 78.6 °F
Dew Point: 69.8 °F 60.8 °F 64.9 °F
Umidità: 77% 52% 64%
Velocità vento: 13.7mph 1.9mph 7.3mph
Raffica: 19.9mph - -
Direzione- - East
Pressione: 30 in 29.9 in -
Precipitazioni: 0 in    
 
 
Tabulato Dati per Giugno 14, 2022
Ora Temperatura Dew Point Pressione Direzione Velocità vento Raffica Umidità Intensità pioggia (oraria) Info solare Situazione
00:04 73.4 °F 66.2 °F 29.9 in NE 5 mph 9.3 mph 76% 0 in 0.00 W/m2 unknown
00:09 73.4 °F 66.2 °F 29.9 in ENE 5.6 mph 8.7 mph 76% 0 in 0.00 W/m2 unknown
00:14 73.4 °F 66.2 °F 29.9 in ENE 6.2 mph 8.1 mph 76% 0 in 0.00 W/m2 unknown
00:19 73.4 °F 66.2 °F 29.9 in ENE 5 mph 8.1 mph 76% 0 in 0.00 W/m2 unknown
00:24 73.4 °F 64.4 °F 29.9 in ENE 5 mph 6.8 mph 76% 0 in 0.00 W/m2 unknown
00:29 73.4 °F 66.2 °F 29.9 in ENE 5 mph 8.1 mph 77% 0 in 0.00 W/m2 unknown
00:34 73.4 °F 66.2 °F 29.9 in ENE 5.6 mph 8.1 mph 77% 0 in 0.00 W/m2 unknown
00:39 73.4 °F 66.2 °F 29.9 in ENE 5 mph 8.1 mph 77% 0 in 0.00 W/m2 unknown
00:44 73.4 °F 64.4 °F 29.9 in ENE 5 mph 8.1 mph 76% 0 in 0.00 W/m2 unknown
00:49 73.4 °F 64.4 °F 29.9 in ENE 5 mph 6.8 mph 76% 0 in 0.00 W/m2 unknown
00:54 73.4 °F 64.4 °F 29.9 in ENE 5 mph 6.8 mph 76% 0 in 0.00 W/m2 unknown
00:59 73.4 °F 64.4 °F 29.9 in ENE 5.6 mph 6.8 mph 76% 0 in 0.00 W/m2 unknown
01:04 73.4 °F 64.4 °F 29.9 in ENE 5 mph 6.8 mph 75% 0 in 0.00 W/m2 unknown
01:09 73.4 °F 64.4 °F 29.9 in ENE 3.7 mph 6.8 mph 75% 0 in 0.00 W/m2 unknown
01:14 73.4 °F 64.4 °F 29.9 in ENE 3.7 mph 5 mph 75% 0 in 0.00 W/m2 unknown
01:19 73.4 °F 64.4 °F 30 in NE 5 mph 8.7 mph 75% 0 in 0.00 W/m2 unknown
01:24 73.4 °F 64.4 °F 30 in ENE 6.2 mph 9.3 mph 75% 0 in 0.00 W/m2 unknown
01:29 73.4 °F 64.4 °F 30 in ENE 6.2 mph 9.3 mph 75% 0 in 0.00 W/m2 unknown
01:34 73.4 °F 64.4 °F 30 in ENE 6.2 mph 10.6 mph 75% 0 in 0.00 W/m2 unknown
01:39 71.6 °F 64.4 °F 30 in ENE 6.2 mph 10.6 mph 75% 0 in 0.00 W/m2 unknown
01:44 71.6 °F 64.4 °F 30 in ENE 6.2 mph 8.7 mph 76% 0 in 0.00 W/m2 unknown
01:49 71.6 °F 64.4 °F 30 in ENE 6.2 mph 9.3 mph 76% 0 in 0.00 W/m2 unknown
01:54 71.6 °F 64.4 °F 30 in ENE 6.2 mph 8.7 mph 76% 0 in 0.00 W/m2 unknown
01:59 71.6 °F 64.4 °F 30 in ENE 6.2 mph 8.1 mph 76% 0 in 0.00 W/m2 unknown
02:04 71.6 °F 64.4 °F 30 in ENE 5 mph 8.1 mph 76% 0 in 0.00 W/m2 unknown
02:09 71.6 °F 62.6 °F 30 in ENE 3.7 mph 5.6 mph 76% 0 in 0.00 W/m2 unknown
02:14 71.6 °F 62.6 °F 30 in ENE 3.7 mph 6.2 mph 76% 0 in 0.00 W/m2 unknown
02:19 71.6 °F 62.6 °F 30 in ENE 3.7 mph 6.2 mph 76% 0 in 0.00 W/m2 unknown
02:24 71.6 °F 62.6 °F 30 in NE 3.7 mph 6.2 mph 76% 0 in 0.00 W/m2 unknown
02:29 71.6 °F 62.6 °F 30 in ENE 3.7 mph 6.2 mph 76% 0 in 0.00 W/m2 unknown
02:34 71.6 °F 62.6 °F 30 in ENE 3.7 mph 6.2 mph 76% 0 in 0.00 W/m2 unknown
02:39 71.6 °F 62.6 °F 30 in East 3.1 mph 5 mph 75% 0 in 0.00 W/m2 unknown
02:44 71.6 °F 62.6 °F 30 in ENE 4.3 mph 6.8 mph 75% 0 in 0.00 W/m2 unknown
02:49 71.6 °F 62.6 °F 30 in ENE 5 mph 6.8 mph 75% 0 in 0.00 W/m2 unknown
02:54 71.6 °F 62.6 °F 30 in NE 5.6 mph 8.1 mph 75% 0 in 0.00 W/m2 unknown
02:59 71.6 °F 62.6 °F 30 in NE 5 mph 8.1 mph 75% 0 in 0.00 W/m2 unknown
03:04 71.6 °F 62.6 °F 30 in ENE 5 mph 8.1 mph 75% 0 in 0.00 W/m2 unknown
03:09 71.6 °F 62.6 °F 30 in ENE 5 mph 6.8 mph 74% 0 in 0.00 W/m2 unknown
03:14 69.8 °F 62.6 °F 30 in ENE 4.3 mph 6.8 mph 74% 0 in 0.00 W/m2 unknown
03:19 69.8 °F 62.6 °F 30 in ENE 5 mph 6.8 mph 74% 0 in 0.00 W/m2 unknown
03:24 69.8 °F 62.6 °F 30 in ENE 5.6 mph 8.1 mph 74% 0 in 0.00 W/m2 unknown
03:29 69.8 °F 62.6 °F 30 in ENE 5.6 mph 8.1 mph 74% 0 in 0.00 W/m2 unknown
03:34 69.8 °F 62.6 °F 30 in ENE 6.2 mph 8.1 mph 74% 0 in 0.00 W/m2 unknown
03:39 69.8 °F 62.6 °F 30 in ENE 6.2 mph 6.8 mph 74% 0 in 0.00 W/m2 unknown
03:44 69.8 °F 62.6 °F 30 in ENE 6.2 mph 6.8 mph 74% 0 in 0.00 W/m2 unknown
03:49 69.8 °F 62.6 °F 30 in ENE 6.2 mph 6.8 mph 75% 0 in 0.00 W/m2 unknown
03:54 69.8 °F 62.6 °F 30 in ENE 6.2 mph 6.8 mph 75% 0 in 0.00 W/m2 unknown
03:59 69.8 °F 62.6 °F 30 in ENE 5 mph 6.2 mph 75% 0 in 0.00 W/m2 unknown
04:03 69.8 °F 62.6 °F 30 in ENE 5 mph 5 mph 75% 0 in 0.00 W/m2 unknown
04:08 69.8 °F 62.6 °F 30 in ENE 3.7 mph 5 mph 76% 0 in 0.00 W/m2 unknown
04:13 69.8 °F 62.6 °F 30 in NE 4.3 mph 8.1 mph 76% 0 in 0.00 W/m2 unknown
04:18 69.8 °F 62.6 °F 30 in ENE 5.6 mph 8.1 mph 76% 0 in 0.00 W/m2 unknown
04:23 69.8 °F 62.6 °F 30 in ENE 6.2 mph 9.3 mph 76% 0 in 0.00 W/m2 unknown
04:29 69.8 °F 62.6 °F 30 in NE 7.5 mph 10.6 mph 77% 0 in 0.00 W/m2 unknown
04:34 69.8 °F 62.6 °F 30 in NE 6.2 mph 9.9 mph 77% 0 in 0.00 W/m2 unknown
04:38 69.8 °F 62.6 °F 30 in ENE 6.2 mph 9.3 mph 77% 0 in 0.00 W/m2 unknown
04:44 69.8 °F 62.6 °F 30 in ENE 7.5 mph 11.8 mph 77% 0 in 0.00 W/m2 unknown
04:48 69.8 °F 62.6 °F 30 in ENE 7.5 mph 11.8 mph 77% 0 in 0.00 W/m2 unknown
04:54 69.8 °F 62.6 °F 30 in ENE 6.8 mph 10.6 mph 77% 0 in 0.00 W/m2 unknown
04:58 69.8 °F 62.6 °F 30 in ENE 6.2 mph 9.9 mph 77% 0 in 0.00 W/m2 unknown
05:03 69.8 °F 62.6 °F 30 in ENE 5 mph 6.8 mph 77% 0 in 0.00 W/m2 unknown
05:09 71.6 °F 62.6 °F 30 in ENE 5 mph 8.1 mph 77% 0 in 0.00 W/m2 unknown
05:14 71.6 °F 62.6 °F 30 in ENE 5.6 mph 8.1 mph 76% 0 in 0.00 W/m2 unknown
05:18 71.6 °F 62.6 °F 30 in East 5.6 mph 8.1 mph 76% 0 in 0.00 W/m2 unknown
05:24 71.6 °F 62.6 °F 30 in ENE 6.2 mph 8.1 mph 76% 0 in 0.00 W/m2 unknown
05:29 71.6 °F 62.6 °F 30 in ENE 6.2 mph 8.1 mph 76% 0 in 0.00 W/m2 unknown
05:34 71.6 °F 62.6 °F 30 in ENE 6.2 mph 8.1 mph 76% 0 in 0.00 W/m2 unknown
05:39 71.6 °F 62.6 °F 30 in ENE 5 mph 8.1 mph 76% 0 in 0.00 W/m2 unknown
05:44 71.6 °F 62.6 °F 30 in ENE 5.6 mph 8.1 mph 76% 0 in 7.00 W/m2 unknown
05:49 71.6 °F 62.6 °F 30 in ENE 6.8 mph 9.3 mph 76% 0 in 9.00 W/m2 unknown
05:54 71.6 °F 62.6 °F 30 in ENE 6.2 mph 9.3 mph 75% 0 in 12.00 W/m2 unknown
05:59 71.6 °F 64.4 °F 30 in East 6.2 mph 8.7 mph 75% 0 in 14.00 W/m2 unknown
06:03 71.6 °F 64.4 °F 30 in East 5 mph 6.2 mph 75% 0 in 14.00 W/m2 unknown
06:09 71.6 °F 64.4 °F 30 in East 5 mph 6.8 mph 75% 0 in 23.00 W/m2 unknown
06:14 73.4 °F 64.4 °F 30 in East 5 mph 10.6 mph 75% 0 in 26.00 W/m2 unknown
06:19 73.4 °F 64.4 °F 30 in ENE 6.2 mph 10.6 mph 74% 0 in 30.00 W/m2 unknown
06:24 73.4 °F 64.4 °F 30 in ENE 6.8 mph 10.6 mph 74% 0 in 32.00 W/m2 unknown
06:29 73.4 °F 64.4 °F 30 in ENE 6.8 mph 10.6 mph 73% 0 in 35.00 W/m2 unknown
06:34 73.4 °F 64.4 °F 30 in ENE 8.7 mph 13 mph 73% 0 in 35.00 W/m2 unknown
06:39 73.4 °F 64.4 °F 30 in ENE 8.7 mph 14.3 mph 72% 0 in 39.00 W/m2 unknown
06:44 73.4 °F 62.6 °F 30 in East 11.2 mph 14.9 mph 72% 0 in 44.00 W/m2 unknown
06:49 73.4 °F 62.6 °F 30 in ENE 10.6 mph 16.2 mph 71% 0 in 49.00 W/m2 unknown
06:54 73.4 °F 62.6 °F 30 in ENE 10.6 mph 16.2 mph 71% 0 in 56.00 W/m2 unknown
06:59 73.4 °F 62.6 °F 30 in ENE 9.9 mph 16.2 mph 72% 0 in 69.00 W/m2 unknown
07:04 73.4 °F 62.6 °F 30 in East 11.8 mph 14.9 mph 72% 0 in 113.00 W/m2 unknown
07:09 73.4 °F 62.6 °F 30 in ENE 11.8 mph 14.3 mph 71% 0 in 107.00 W/m2 unknown
07:14 73.4 °F 62.6 °F 30 in ENE 11.8 mph 14.3 mph 70% 0 in 123.00 W/m2 unknown
07:19 73.4 °F 62.6 °F 30 in ENE 9.9 mph 14.3 mph 70% 0 in 111.00 W/m2 unknown
07:24 73.4 °F 62.6 °F 30 in East 9.3 mph 11.8 mph 70% 0 in 176.00 W/m2 unknown
07:29 75.2 °F 62.6 °F 30 in East 10.6 mph 14.3 mph 68% 0 in 179.00 W/m2 unknown
07:34 75.2 °F 62.6 °F 30 in ENE 10.6 mph 14.3 mph 67% 0 in 178.00 W/m2 unknown
07:39 75.2 °F 62.6 °F 30 in ENE 10.6 mph 16.2 mph 67% 0 in 213.00 W/m2 unknown
07:44 75.2 °F 62.6 °F 30 in ENE 9.9 mph 16.2 mph 66% 0 in 234.00 W/m2 unknown
07:49 75.2 °F 62.6 °F 30 in ENE 11.2 mph 17.4 mph 66% 0 in 239.00 W/m2 unknown
07:54 75.2 °F 62.6 °F 30 in ENE 11.8 mph 17.4 mph 65% 0 in 248.00 W/m2 unknown
07:59 75.2 °F 62.6 °F 30 in ENE 11.8 mph 17.4 mph 65% 0 in 271.00 W/m2 unknown
08:04 75.2 °F 62.6 °F 30 in ENE 13.7 mph 18.6 mph 65% 0 in 271.00 W/m2 unknown
08:09 75.2 °F 62.6 °F 30 in ENE 13 mph 18.6 mph 65% 0 in 278.00 W/m2 unknown
08:14 75.2 °F 62.6 °F 30 in ENE 13 mph 18 mph 65% 0 in 278.00 W/m2 unknown
08:19 75.2 °F 62.6 °F 30 in ENE 13 mph 19.9 mph 65% 0 in 290.00 W/m2 unknown
08:24 77 °F 64.4 °F 30 in East 13.7 mph 19.9 mph 66% 0 in 308.00 W/m2 unknown
08:29 77 °F 64.4 °F 30 in East 11.8 mph 19.9 mph 65% 0 in 330.00 W/m2 unknown
08:34 77 °F 64.4 °F 30 in East 10.6 mph 14.3 mph 65% 0 in 346.00 W/m2 unknown
08:39 77 °F 64.4 °F 30 in East 9.9 mph 16.2 mph 65% 0 in 364.00 W/m2 unknown
08:44 77 °F 64.4 °F 30 in ENE 9.9 mph 16.2 mph 65% 0 in 380.00 W/m2 unknown
08:49 77 °F 64.4 °F 30 in ENE 9.3 mph 16.2 mph 65% 0 in 396.00 W/m2 unknown
08:54 77 °F 64.4 °F 30 in East 10.6 mph 16.2 mph 65% 0 in 411.00 W/m2 unknown
08:59 77 °F 64.4 °F 30 in ENE 11.8 mph 16.2 mph 64% 0 in 418.00 W/m2 unknown
09:04 77 °F 64.4 °F 30 in East 11.8 mph 16.2 mph 64% 0 in 434.00 W/m2 unknown
09:09 77 °F 64.4 °F 30 in East 9.9 mph 16.2 mph 64% 0 in 445.00 W/m2 unknown
09:14 78.8 °F 66.2 °F 30 in East 10.6 mph 16.2 mph 65% 0 in 464.00 W/m2 unknown
09:19 78.8 °F 64.4 °F 30 in East 11.2 mph 16.2 mph 64% 0 in 476.00 W/m2 unknown
09:23 78.8 °F 64.4 °F 30 in East 9.9 mph 17.4 mph 64% 0 in 492.00 W/m2 unknown
09:29 78.8 °F 66.2 °F 30 in East 13 mph 19.3 mph 64% 0 in 517.00 W/m2 unknown
09:34 78.8 °F 66.2 °F 30 in ESE 12.4 mph 19.3 mph 64% 0 in 517.00 W/m2 unknown
09:39 78.8 °F 66.2 °F 30 in ESE 9.9 mph 18 mph 63% 0 in 527.00 W/m2 unknown
09:44 78.8 °F 64.4 °F 30 in East 9.9 mph 16.2 mph 62% 0 in 536.00 W/m2 unknown
09:49 78.8 °F 64.4 °F 30 in ENE 11.2 mph 17.4 mph 61% 0 in 552.00 W/m2 unknown
09:54 78.8 °F 64.4 °F 30 in East 11.8 mph 18 mph 61% 0 in 566.00 W/m2 unknown
09:59 78.8 °F 64.4 °F 30 in ESE 11.8 mph 18.6 mph 61% 0 in 598.00 W/m2 unknown
10:04 78.8 °F 64.4 °F 30 in East 12.4 mph 18.6 mph 61% 0 in 606.00 W/m2 unknown
10:09 80.6 °F 64.4 °F 30 in East 11.8 mph 14.9 mph 61% 0 in 606.00 W/m2 unknown
10:14 80.6 °F 64.4 °F 30 in East 11.8 mph 17.4 mph 61% 0 in 633.00 W/m2 unknown
10:19 80.6 °F 64.4 °F 30 in East 10.6 mph 17.4 mph 60% 0 in 633.00 W/m2 unknown
10:24 80.6 °F 64.4 °F 30 in East 10.6 mph 16.8 mph 60% 0 in 645.00 W/m2 unknown
10:29 80.6 °F 64.4 °F 30 in East 10.6 mph 14.9 mph 59% 0 in 659.00 W/m2 unknown
10:34 80.6 °F 64.4 °F 30 in ESE 9.9 mph 14.9 mph 59% 0 in 677.00 W/m2 unknown
10:39 80.6 °F 64.4 °F 30 in ESE 8.7 mph 14.9 mph 58% 0 in 677.00 W/m2 unknown
10:44 80.6 °F 64.4 °F 30 in ESE 8.7 mph 14.9 mph 58% 0 in 670.00 W/m2 unknown
10:49 80.6 °F 64.4 °F 30 in ESE 9.9 mph 14.9 mph 59% 0 in 693.00 W/m2 unknown
10:54 80.6 °F 66.2 °F 30 in East 9.9 mph 14.9 mph 60% 0 in 691.00 W/m2 unknown
10:59 80.6 °F 66.2 °F 30 in ESE 8.7 mph 16.2 mph 61% 0 in 703.00 W/m2 unknown
11:04 80.6 °F 66.2 °F 30 in East 9.9 mph 16.2 mph 60% 0 in 714.00 W/m2 unknown
11:08 82.4 °F 66.2 °F 30 in East 8.1 mph 11.8 mph 59% 0 in 714.00 W/m2 unknown
11:14 82.4 °F 66.2 °F 30 in ESE 6.8 mph 13 mph 59% 0 in 738.00 W/m2 unknown
11:19 82.4 °F 66.2 °F 30 in East 8.1 mph 13 mph 59% 0 in 742.00 W/m2 unknown
11:24 82.4 °F 66.2 °F 30 in ENE 8.1 mph 13 mph 58% 0 in 742.00 W/m2 unknown
11:27 82.4 °F 66.2 °F 30 in East 8.1 mph 13 mph 58% 0 in 751.00 W/m2 unknown
11:32 82.4 °F 66.2 °F 30 in East 8.7 mph 13 mph 58% 0 in 765.00 W/m2 unknown
11:39 82.4 °F 66.2 °F 30 in ESE 8.7 mph 13 mph 58% 0 in 773.00 W/m2 unknown
11:44 82.4 °F 66.2 °F 30 in ESE 8.7 mph 13 mph 58% 0 in 777.00 W/m2 unknown
11:49 82.4 °F 66.2 °F 30 in ESE 9.9 mph 16.2 mph 58% 0 in 791.00 W/m2 unknown
11:54 82.4 °F 66.2 °F 30 in ESE 9.3 mph 16.2 mph 59% 0 in 795.00 W/m2 unknown
11:59 82.4 °F 66.2 °F 30 in ENE 8.7 mph 16.2 mph 59% 0 in 802.00 W/m2 unknown
12:04 82.4 °F 66.2 °F 30 in East 8.7 mph 14.3 mph 57% 0 in 809.00 W/m2 unknown
12:09 82.4 °F 68 °F 30 in East 8.7 mph 14.9 mph 59% 0 in 809.00 W/m2 unknown
12:14 82.4 °F 66.2 °F 30 in East 10.6 mph 14.9 mph 58% 0 in 817.00 W/m2 unknown
12:19 84.2 °F 66.2 °F 30 in East 10.6 mph 16.8 mph 56% 0 in 830.00 W/m2 unknown
12:24 84.2 °F 66.2 °F 30 in East 11.2 mph 17.4 mph 57% 0 in 831.00 W/m2 unknown
12:29 84.2 °F 66.2 °F 30 in ENE 11.2 mph 17.4 mph 57% 0 in 835.00 W/m2 unknown
12:34 84.2 °F 68 °F 30 in East 9.3 mph 16.8 mph 58% 0 in 838.00 W/m2 unknown
12:39 84.2 °F 66.2 °F 30 in East 9.9 mph 16.2 mph 57% 0 in 840.00 W/m2 unknown
12:44 84.2 °F 66.2 °F 30 in East 9.3 mph 16.2 mph 57% 0 in 844.00 W/m2 unknown
12:49 84.2 °F 68 °F 30 in East 8.7 mph 13 mph 58% 0 in 860.00 W/m2 unknown
12:54 84.2 °F 68 °F 30 in East 11.8 mph 16.8 mph 58% 0 in 867.00 W/m2 unknown
12:59 84.2 °F 68 °F 30 in East 11.8 mph 17.4 mph 57% 0 in 851.00 W/m2 unknown
13:04 84.2 °F 66.2 °F 30 in East 11.8 mph 16.8 mph 57% 0 in 854.00 W/m2 unknown
13:09 84.2 °F 68 °F 30 in East 11.2 mph 16.2 mph 59% 0 in 861.00 W/m2 unknown
13:14 84.2 °F 68 °F 30 in East 11.2 mph 16.2 mph 57% 0 in 861.00 W/m2 unknown
13:19 84.2 °F 68 °F 30 in ENE 11.2 mph 16.2 mph 58% 0 in 861.00 W/m2 unknown
13:24 84.2 °F 68 °F 30 in East 10.6 mph 17.4 mph 58% 0 in 856.00 W/m2 unknown
13:29 84.2 °F 68 °F 30 in East 10.6 mph 17.4 mph 57% 0 in 860.00 W/m2 unknown
13:34 84.2 °F 68 °F 30 in ESE 10.6 mph 17.4 mph 57% 0 in 867.00 W/m2 unknown
13:39 84.2 °F 68 °F 30 in East 9.9 mph 16.8 mph 57% 0 in 875.00 W/m2 unknown
13:44 84.2 °F 68 °F 30 in East 10.6 mph 14.3 mph 58% 0 in 888.00 W/m2 unknown
13:49 86 °F 68 °F 30 in ESE 8.7 mph 14.3 mph 58% 0 in 879.00 W/m2 unknown
13:54 84.2 °F 68 °F 30 in SSE 8.1 mph 13 mph 58% 0 in 861.00 W/m2 unknown
13:59 86 °F 68 °F 30 in East 8.7 mph 13 mph 58% 0 in 867.00 W/m2 unknown
14:04 86 °F 68 °F 30 in ESE 8.1 mph 13 mph 57% 0 in 863.00 W/m2 unknown
14:09 86 °F 68 °F 30 in East 7.5 mph 13 mph 56% 0 in 849.00 W/m2 unknown
14:14 86 °F 69.8 °F 30 in NE 9.9 mph 14.3 mph 57% 0 in 865.00 W/m2 unknown
14:19 86 °F 68 °F 30 in ENE 9.9 mph 14.3 mph 56% 0 in 874.00 W/m2 unknown
14:24 86 °F 68 °F 30 in East 7.5 mph 13.7 mph 56% 0 in 874.00 W/m2 unknown
14:29 86 °F 68 °F 30 in East 8.1 mph 11.8 mph 58% 0 in 860.00 W/m2 unknown
14:34 86 °F 68 °F 30 in ESE 9.3 mph 11.8 mph 57% 0 in 860.00 W/m2 unknown
14:39 86 °F 68 °F 30 in East 9.3 mph 11.8 mph 58% 0 in 838.00 W/m2 unknown
14:44 86 °F 68 °F 30 in ENE 8.7 mph 13 mph 57% 0 in 823.00 W/m2 unknown
14:49 86 °F 68 °F 30 in East 8.7 mph 13 mph 56% 0 in 819.00 W/m2 unknown
14:54 86 °F 68 °F 30 in East 8.1 mph 13 mph 56% 0 in 858.00 W/m2 unknown
14:59 86 °F 68 °F 30 in ESE 8.1 mph 11.8 mph 56% 0 in 858.00 W/m2 unknown
15:04 86 °F 69.8 °F 30 in ENE 6.8 mph 11.8 mph 57% 0 in 812.00 W/m2 unknown
15:09 86 °F 68 °F 30 in ESE 6.2 mph 9.9 mph 56% 0 in 814.00 W/m2 unknown
15:14 86 °F 68 °F 30 in East 8.7 mph 13 mph 56% 0 in 803.00 W/m2 unknown
15:19 86 °F 68 °F 30 in ESE 8.7 mph 13 mph 56% 0 in 788.00 W/m2 unknown
15:24 86 °F 68 °F 30 in ESE 8.1 mph 13 mph 56% 0 in 788.00 W/m2 unknown
15:29 86 °F 68 °F 30 in SE 8.1 mph 13 mph 57% 0 in 772.00 W/m2 unknown
15:34 86 °F 69.8 °F 30 in East 6.8 mph 11.8 mph 57% 0 in 754.00 W/m2 unknown
15:37 86 °F 68 °F 30 in East 7.5 mph 10.6 mph 55% 0 in 754.00 W/m2 unknown
15:43 86 °F 68 °F 30 in East 7.5 mph 10.6 mph 54% 0 in 751.00 W/m2 unknown
15:49 86 °F 68 °F 30 in East 7.5 mph 16.2 mph 55% 0 in 751.00 W/m2 unknown
15:54 86 °F 68 °F 30 in East 8.7 mph 16.2 mph 55% 0 in 722.00 W/m2 unknown
15:59 86 °F 68 °F 30 in ESE 8.1 mph 16.2 mph 55% 0 in 722.00 W/m2 unknown
16:04 86 °F 68 °F 30 in East 8.1 mph 14.3 mph 55% 0 in 705.00 W/m2 unknown
16:09 86 °F 68 °F 30 in East 8.7 mph 13 mph 55% 0 in 694.00 W/m2 unknown
16:14 86 °F 68 °F 30 in East 8.1 mph 13 mph 55% 0 in 687.00 W/m2 unknown
16:19 86 °F 68 °F 30 in ESE 9.9 mph 13 mph 56% 0 in 670.00 W/m2 unknown
16:24 86 °F 68 °F 30 in ESE 9.9 mph 14.3 mph 54% 0 in 661.00 W/m2 unknown
16:29 86 °F 68 °F 30 in ESE 8.7 mph 14.3 mph 54% 0 in 654.00 W/m2 unknown
16:34 86 °F 68 °F 30 in East 7.5 mph 11.2 mph 55% 0 in 645.00 W/m2 unknown
16:39 87.8 °F 68 °F 30 in ENE 8.1 mph 12.4 mph 54% 0 in 631.00 W/m2 unknown
16:44 87.8 °F 68 °F 30 in East 9.3 mph 13 mph 54% 0 in 622.00 W/m2 unknown
16:49 87.8 °F 68 °F 30 in East 9.3 mph 13 mph 54% 0 in 608.00 W/m2 unknown
16:54 86 °F 68 °F 30 in ESE 8.1 mph 14.3 mph 55% 0 in 601.00 W/m2 unknown
16:59 87.8 °F 68 °F 30 in ESE 8.7 mph 14.3 mph 54% 0 in 592.00 W/m2 unknown
17:04 87.8 °F 68 °F 30 in ESE 8.7 mph 13 mph 54% 0 in 584.00 W/m2 unknown
17:09 87.8 °F 68 °F 30 in ESE 8.1 mph 13 mph 54% 0 in 564.00 W/m2 unknown
17:14 86 °F 68 °F 30 in East 8.1 mph 13 mph 54% 0 in 550.00 W/m2 unknown
17:19 86 °F 68 °F 30 in East 9.3 mph 14.3 mph 54% 0 in 540.00 W/m2 unknown
17:24 86 °F 66.2 °F 30 in East 9.9 mph 14.3 mph 53% 0 in 527.00 W/m2 unknown
17:29 86 °F 66.2 °F 30 in East 8.7 mph 14.3 mph 53% 0 in 512.00 W/m2 unknown
17:34 86 °F 66.2 °F 30 in East 8.1 mph 10.6 mph 53% 0 in 503.00 W/m2 unknown
17:39 86 °F 66.2 °F 30 in East 7.5 mph 11.8 mph 53% 0 in 490.00 W/m2 unknown
17:44 86 °F 66.2 °F 30 in ESE 8.1 mph 11.8 mph 53% 0 in 471.00 W/m2 unknown
17:49 86 °F 68 °F 30 in ESE 6.8 mph 11.8 mph 54% 0 in 454.00 W/m2 unknown
17:54 86 °F 68 °F 30 in ESE 6.2 mph 9.3 mph 54% 0 in 443.00 W/m2 unknown
17:59 86 °F 68 °F 30 in ESE 5 mph 9.3 mph 54% 0 in 432.00 W/m2 unknown
18:04 86 °F 66.2 °F 30 in ESE 5.6 mph 9.3 mph 53% 0 in 417.00 W/m2 unknown
18:09 86 °F 66.2 °F 30 in East 6.8 mph 11.2 mph 52% 0 in 403.00 W/m2 unknown
18:14 86 °F 66.2 °F 30 in East 7.5 mph 11.8 mph 54% 0 in 392.00 W/m2 unknown
18:19 86 °F 66.2 °F 30 in ESE 6.8 mph 11.8 mph 54% 0 in 376.00 W/m2 unknown
18:24 86 °F 66.2 °F 30 in East 5.6 mph 8.1 mph 53% 0 in 367.00 W/m2 unknown
18:29 86 °F 66.2 °F 30 in ESE 6.2 mph 8.1 mph 53% 0 in 341.00 W/m2 unknown
18:34 86 °F 66.2 °F 30 in ESE 6.2 mph 8.1 mph 53% 0 in 329.00 W/m2 unknown
18:39 86 °F 66.2 °F 30 in ESE 5 mph 8.1 mph 53% 0 in 320.00 W/m2 unknown
18:44 86 °F 66.2 °F 30 in ESE 6.2 mph 10.6 mph 53% 0 in 306.00 W/m2 unknown
18:49 86 °F 66.2 °F 30 in East 6.8 mph 10.6 mph 55% 0 in 290.00 W/m2 unknown
18:54 86 °F 66.2 °F 30 in East 6.8 mph 10.6 mph 55% 0 in 271.00 W/m2 unknown
18:59 84.2 °F 66.2 °F 30 in ESE 5.6 mph 6.8 mph 55% 0 in 255.00 W/m2 unknown
19:04 84.2 °F 68 °F 30 in ESE 6.2 mph 9.3 mph 56% 0 in 246.00 W/m2 unknown
19:09 84.2 °F 66.2 °F 30 in ESE 6.8 mph 9.3 mph 55% 0 in 230.00 W/m2 unknown
19:14 84.2 °F 66.2 °F 30 in ESE 6.2 mph 9.3 mph 55% 0 in 200.00 W/m2 unknown
19:18 84.2 °F 66.2 °F 30 in East 6.2 mph 6.8 mph 54% 0 in 179.00 W/m2 unknown
19:24 84.2 °F 66.2 °F 30 in East 5 mph 6.8 mph 55% 0 in 192.00 W/m2 unknown
19:29 84.2 °F 66.2 °F 30 in East 5.6 mph 6.8 mph 55% 0 in 179.00 W/m2 unknown
19:34 84.2 °F 66.2 °F 30 in ESE 5 mph 6.8 mph 55% 0 in 165.00 W/m2 unknown
19:39 84.2 °F 66.2 °F 30 in East 5 mph 6.2 mph 55% 0 in 141.00 W/m2 unknown
19:44 84.2 °F 66.2 °F 30 in ESE 5.6 mph 8.1 mph 55% 0 in 134.00 W/m2 unknown
19:49 82.4 °F 64.4 °F 30 in ESE 6.8 mph 8.1 mph 55% 0 in 105.00 W/m2 unknown
19:54 82.4 °F 64.4 °F 30 in ESE 6.2 mph 8.1 mph 55% 0 in 84.00 W/m2 unknown
19:59 82.4 °F 64.4 °F 30 in ESE 4.3 mph 8.1 mph 55% 0 in 65.00 W/m2 unknown
20:04 82.4 °F 64.4 °F 30 in East 5 mph 8.1 mph 56% 0 in 53.00 W/m2 unknown
20:09 82.4 °F 64.4 °F 30 in SE 5 mph 8.1 mph 57% 0 in 51.00 W/m2 unknown
20:14 82.4 °F 64.4 °F 30 in SE 3.1 mph 5 mph 57% 0 in 39.00 W/m2 unknown
20:19 82.4 °F 64.4 °F 30 in SSE 3.1 mph 5 mph 57% 0 in 28.00 W/m2 unknown
20:24 80.6 °F 64.4 °F 30 in ESE 3.1 mph 5 mph 58% 0 in 23.00 W/m2 unknown
20:29 80.6 °F 64.4 °F 30 in SE 3.1 mph 5 mph 58% 0 in 21.00 W/m2 unknown
20:34 80.6 °F 64.4 °F 30 in ESE 1.9 mph 5 mph 58% 0 in 16.00 W/m2 unknown
20:39 80.6 °F 64.4 °F 30 in ESE 2.5 mph 5 mph 59% 0 in 14.00 W/m2 unknown
20:44 80.6 °F 64.4 °F 30 in ESE 3.1 mph 5 mph 59% 0 in 12.00 W/m2 unknown
20:49 80.6 °F 64.4 °F 30 in ESE 3.1 mph 5 mph 60% 0 in 9.00 W/m2 unknown
20:54 78.8 °F 64.4 °F 30 in ESE 3.1 mph 5 mph 60% 0 in 9.00 W/m2 unknown
20:59 78.8 °F 64.4 °F 30 in ESE 2.5 mph 5 mph 60% 0 in 7.00 W/m2 unknown
21:04 78.8 °F 64.4 °F 30 in ESE 3.1 mph 6.2 mph 60% 0 in 5.00 W/m2 unknown
21:09 78.8 °F 64.4 °F 30 in ESE 2.5 mph 6.2 mph 60% 0 in 0.00 W/m2 unknown
21:14 78.8 °F 62.6 °F 30 in ESE 2.5 mph 6.2 mph 60% 0 in 0.00 W/m2 unknown
21:19 78.8 °F 62.6 °F 30 in ESE 3.7 mph 5 mph 60% 0 in 0.00 W/m2 unknown
21:24 78.8 °F 62.6 °F 30 in ESE 3.7 mph 5 mph 59% 0 in 0.00 W/m2 unknown
21:29 78.8 °F 62.6 °F 30 in SE 3.1 mph 5 mph 59% 0 in 0.00 W/m2 unknown
21:34 78.8 °F 62.6 °F 30 in East 3.1 mph 5 mph 59% 0 in 0.00 W/m2 unknown
21:39 77 °F 62.6 °F 30 in ESE 3.1 mph 5 mph 60% 0 in 0.00 W/m2 unknown
21:44 77 °F 62.6 °F 30 in East 3.7 mph 6.8 mph 61% 0 in 0.00 W/m2 unknown
21:49 77 °F 62.6 °F 30 in ESE 3.7 mph 6.8 mph 62% 0 in 0.00 W/m2 unknown
21:54 77 °F 62.6 °F 30 in East 3.7 mph 6.2 mph 62% 0 in 0.00 W/m2 unknown
21:59 77 °F 62.6 °F 30 in East 5 mph 6.8 mph 63% 0 in 0.00 W/m2 unknown
22:04 77 °F 62.6 °F 30 in ESE 5 mph 8.1 mph 63% 0 in 0.00 W/m2 unknown
22:09 75.2 °F 62.6 °F 30 in ESE 5 mph 8.1 mph 63% 0 in 0.00 W/m2 unknown
22:14 75.2 °F 62.6 °F 30 in East 4.3 mph 6.8 mph 64% 0 in 0.00 W/m2 unknown
22:19 75.2 °F 62.6 °F 30 in East 5.6 mph 8.1 mph 64% 0 in 0.00 W/m2 unknown
22:24 75.2 °F 62.6 °F 30 in East 6.2 mph 8.1 mph 64% 0 in 0.00 W/m2 unknown
22:29 75.2 °F 62.6 °F 30 in East 6.2 mph 8.1 mph 64% 0 in 0.00 W/m2 unknown
22:34 75.2 °F 62.6 °F 30 in East 5 mph 8.1 mph 64% 0 in 0.00 W/m2 unknown
22:39 75.2 °F 62.6 °F 30 in ESE 5.6 mph 9.3 mph 64% 0 in 0.00 W/m2 unknown
22:44 75.2 °F 62.6 °F 30 in East 6.2 mph 9.3 mph 64% 0 in 0.00 W/m2 unknown
22:49 75.2 °F 62.6 °F 30 in ESE 6.2 mph 8.7 mph 64% 0 in 0.00 W/m2 unknown
22:54 75.2 °F 62.6 °F 30 in East 5 mph 6.8 mph 64% 0 in 0.00 W/m2 unknown
22:59 75.2 °F 60.8 °F 30 in East 5 mph 6.8 mph 64% 0 in 0.00 W/m2 unknown
23:04 75.2 °F 62.6 °F 30 in ESE 5 mph 6.8 mph 65% 0 in 0.00 W/m2 unknown
23:09 73.4 °F 60.8 °F 30 in East 5 mph 6.8 mph 65% 0 in 0.00 W/m2 unknown
23:14 73.4 °F 60.8 °F 30 in East 3.7 mph 6.8 mph 65% 0 in 0.00 W/m2 unknown
23:19 73.4 °F 60.8 °F 30 in ESE 3.1 mph 5 mph 65% 0 in 0.00 W/m2 unknown
23:24 73.4 °F 62.6 °F 30 in East 3.1 mph 5 mph 66% 0 in 0.00 W/m2 unknown
23:29 73.4 °F 62.6 °F 30 in East 3.1 mph 5 mph 67% 0 in 0.00 W/m2 unknown
23:34 73.4 °F 62.6 °F 30 in ENE 2.5 mph 5 mph 67% 0 in 0.00 W/m2 unknown
23:39 73.4 °F 62.6 °F 30 in NE 3.7 mph 3.7 mph 67% 0 in 0.00 W/m2 unknown
23:44 73.4 °F 60.8 °F 30 in ENE 3.7 mph 6.8 mph 67% 0 in 0.00 W/m2 unknown
23:49 73.4 °F 62.6 °F 30 in ENE 3.7 mph 6.8 mph 68% 0 in 0.00 W/m2 unknown
23:54 73.4 °F 62.6 °F 30 in ENE 4.3 mph 6.8 mph 68% 0 in 0.00 W/m2 unknown
23:59 73.4 °F 62.6 °F 30 in NE 4.3 mph 6.8 mph 69% 0 in 0.00 W/m2 unknown
Stazione Meteorologica MeteoMincio Rivalta s/M (MN)
Con i complimenti di Weather Underground - 2 mb



METEO PILLOLE
Nevicata con fiocchi più grandi
Montana - USA
Nella spettacolare nevicata del 1994 caddero fiocchi del diametro di 40 cm.
Share

Non seguire questo link o sarai bannato dal sito!